Time;durP1;ratioP1;P1;durP2;ratioP2;P2;SDS_P1;SDS_P2;PMS_P1;PMS_P2;Temp;Humidity;BMP_temperature;BMP_pressure;BME280_temperature;BME280_humidity;BME280_pressure;Samples;Min_cycle;Max_cycle;Signal;HPM_P1;HPM_P2
2023/03/02 00:02:16;;;;;;;9.50;9.20;;;1.80;99.90;;;;;;4943841;29;20235;-78
2023/03/02 00:04:48;;;;;;;9.40;9.10;;;1.80;99.90;;;;;;4946921;29;20248;-79
2023/03/02 00:07:22;;;;;;;9.60;9.30;;;1.80;99.90;;;;;;4946148;28;20820;-78
2023/03/02 00:09:50;;;;;;;9.90;9.60;;;1.80;99.90;;;;;;4946611;28;20234;-78
2023/03/02 00:12:18;;;;;;;9.90;9.60;;;1.80;99.90;;;;;;4946128;28;20246;-78
2023/03/02 00:14:50;;;;;;;9.63;9.33;;;1.80;99.90;;;;;;4945955;28;20245;-79
2023/03/02 00:17:26;;;;;;;9.43;9.13;;;1.80;99.90;;;;;;4945974;28;20336;-78
2023/03/02 00:19:54;;;;;;;9.83;9.53;;;1.80;99.90;;;;;;4945658;28;20242;-79
2023/03/02 00:22:21;;;;;;;9.70;9.40;;;1.80;99.90;;;;;;4945889;28;20238;-78
2023/03/02 00:24:49;;;;;;;9.70;9.40;;;1.80;99.90;;;;;;4944826;28;20234;-79
2023/03/02 00:27:18;;;;;;;9.77;9.47;;;1.80;99.90;;;;;;4944772;28;20229;-78
2023/03/02 00:29:47;;;;;;;9.30;9.00;;;1.80;99.90;;;;;;4945586;28;20266;-78
2023/03/02 00:32:16;;;;;;;9.60;9.30;;;1.80;99.90;;;;;;4945817;28;20278;-78
2023/03/02 00:34:46;;;;;;;9.40;9.10;;;1.80;99.90;;;;;;4944876;28;20239;-78
2023/03/02 00:37:14;;;;;;;9.30;9.00;;;1.70;99.90;;;;;;4944722;28;20309;-78
2023/03/02 00:39:45;;;;;;;9.57;9.27;;;1.80;99.90;;;;;;4945695;28;20234;-78
2023/03/02 00:42:13;;;;;;;9.60;9.30;;;1.80;99.90;;;;;;4945569;28;20237;-78
2023/03/02 00:44:40;;;;;;;9.33;9.03;;;1.80;99.90;;;;;;4947935;28;20241;-79
2023/03/02 00:47:13;;;;;;;9.70;9.40;;;1.80;99.90;;;;;;4948340;29;21026;-79
2023/03/02 00:49:41;;;;;;;9.70;9.40;;;1.80;99.90;;;;;;4950166;28;20242;-79
2023/03/02 00:52:12;;;;;;;9.30;9.00;;;1.80;99.90;;;;;;4948988;28;20342;-79
2023/03/02 00:54:41;;;;;;;9.80;9.50;;;1.80;99.90;;;;;;4949379;28;20241;-79
2023/03/02 00:57:08;;;;;;;9.43;9.13;;;1.80;99.90;;;;;;4947843;28;20222;-78
2023/03/02 00:59:40;;;;;;;9.30;9.00;;;1.80;99.90;;;;;;4949144;28;20226;-79
2023/03/02 01:02:08;;;;;;;9.77;9.47;;;1.80;99.90;;;;;;4949311;28;20337;-78
2023/03/02 01:04:38;;;;;;;9.67;9.37;;;1.80;99.90;;;;;;4956527;28;20329;-79
2023/03/02 01:07:11;;;;;;;9.90;9.60;;;1.80;99.90;;;;;;4957749;28;20223;-78
2023/03/02 01:09:39;;;;;;;9.60;9.30;;;1.80;99.90;;;;;;4957173;28;20291;-78
2023/03/02 01:12:10;;;;;;;9.80;9.50;;;1.70;99.90;;;;;;4953401;28;20253;-79
2023/03/02 01:14:38;;;;;;;9.87;9.57;;;1.70;99.90;;;;;;4952823;28;20231;-79
2023/03/02 01:17:07;;;;;;;9.67;9.37;;;1.80;99.90;;;;;;4951225;28;20223;-79
2023/03/02 01:19:34;;;;;;;9.77;9.47;;;1.80;99.90;;;;;;4949319;28;20235;-79
2023/03/02 01:22:04;;;;;;;9.80;9.50;;;1.80;99.90;;;;;;4948805;28;20239;-79
2023/03/02 01:24:33;;;;;;;9.80;9.50;;;1.80;99.90;;;;;;4949787;28;20233;-79
2023/03/02 01:27:03;;;;;;;9.77;9.47;;;1.80;99.90;;;;;;4949597;28;20341;-79
2023/03/02 01:29:30;;;;;;;9.50;9.20;;;1.80;99.90;;;;;;4949095;28;20306;-79
2023/03/02 01:31:58;;;;;;;9.37;9.07;;;1.70;99.90;;;;;;4948943;28;20266;-78
2023/03/02 01:34:25;;;;;;;9.60;9.30;;;1.70;99.90;;;;;;4955389;28;20240;-79
2023/03/02 01:36:53;;;;;;;9.50;9.20;;;1.60;99.90;;;;;;4956911;28;20233;-79
2023/03/02 01:39:21;;;;;;;9.63;9.33;;;1.50;99.90;;;;;;4955534;28;20254;-80
2023/03/02 01:41:52;;;;;;;9.63;9.33;;;1.50;99.90;;;;;;4953942;28;20255;-79
2023/03/02 01:44:43;;;;;;;9.50;9.20;;;1.40;99.90;;;;;;4953048;28;20234;-79
2023/03/02 01:47:16;;;;;;;9.67;9.37;;;1.50;99.90;;;;;;4951646;28;20222;-79
2023/03/02 01:49:50;;;;;;;9.60;9.30;;;1.50;99.90;;;;;;4950300;28;20239;-79
2023/03/02 01:52:18;;;;;;;9.37;9.07;;;1.50;99.90;;;;;;4951165;28;20318;-79
2023/03/02 01:54:49;;;;;;;9.27;8.97;;;1.50;99.90;;;;;;4949839;28;20329;-79
2023/03/02 01:57:24;;;;;;;9.57;9.27;;;1.40;99.90;;;;;;4949907;28;20247;-79
2023/03/02 01:59:56;;;;;;;9.30;9.00;;;1.50;99.90;;;;;;4949075;28;20234;-79
2023/03/02 02:02:24;;;;;;;9.13;8.83;;;1.50;99.90;;;;;;4948689;28;20333;-79
2023/03/02 02:04:52;;;;;;;9.60;9.30;;;1.40;99.90;;;;;;4947280;28;20317;-78
2023/03/02 02:07:21;;;;;;;9.50;9.20;;;1.50;99.90;;;;;;4948894;28;20233;-79
2023/03/02 02:09:53;;;;;;;9.60;9.30;;;1.40;99.90;;;;;;4949745;28;20269;-79
2023/03/02 02:12:23;;;;;;;9.53;9.23;;;1.40;99.90;;;;;;4948904;28;20252;-79
2023/03/02 02:14:52;;;;;;;9.70;9.40;;;1.40;99.90;;;;;;4947822;28;20234;-80
2023/03/02 02:17:21;;;;;;;9.80;9.50;;;1.50;99.90;;;;;;4947743;28;20227;-79
2023/03/02 02:20:08;;;;;;;9.57;9.27;;;1.40;99.90;;;;;;4948889;28;20266;-79
2023/03/02 02:22:56;;;;;;;9.63;9.33;;;1.40;99.90;;;;;;4948533;28;20242;-79
2023/03/02 02:25:42;;;;;;;10.00;9.70;;;1.40;99.90;;;;;;4947730;28;20245;-79
2023/03/02 02:28:18;;;;;;;9.93;9.63;;;1.40;99.90;;;;;;4946897;28;20215;-79
2023/03/02 02:30:48;;;;;;;9.70;9.40;;;1.40;99.90;;;;;;4947037;29;20242;-79
2023/03/02 02:33:20;;;;;;;10.00;9.70;;;1.40;99.90;;;;;;4946428;28;20245;-79
2023/03/02 02:35:49;;;;;;;9.80;9.50;;;1.30;99.90;;;;;;4949838;28;20238;-79
2023/03/02 02:38:19;;;;;;;9.90;9.60;;;1.20;99.90;;;;;;4946998;28;20333;-79
2023/03/02 02:40:51;;;;;;;9.60;9.30;;;1.20;99.90;;;;;;4949231;28;20269;-79
2023/03/02 02:43:23;;;;;;;9.40;9.10;;;1.20;99.90;;;;;;4948900;28;20299;-79
2023/03/02 02:45:55;;;;;;;9.40;9.10;;;1.30;99.90;;;;;;4947171;28;20247;-79
2023/03/02 02:48:25;;;;;;;9.80;9.50;;;1.20;99.90;;;;;;4947082;28;20238;-79
2023/03/02 02:50:59;;;;;;;9.33;9.03;;;1.30;99.90;;;;;;4950455;28;20239;-79
2023/03/02 02:53:41;;;;;;;9.70;9.40;;;1.30;99.90;;;;;;4956572;28;20227;-78
2023/03/02 02:56:10;;;;;;;9.57;9.27;;;1.30;99.90;;;;;;4958422;28;20223;-78
2023/03/02 02:58:44;;;;;;;9.47;9.17;;;1.30;99.90;;;;;;4956815;28;20295;-79
2023/03/02 03:01:14;;;;;;;9.87;9.57;;;1.40;99.90;;;;;;4954328;28;20279;-80
2023/03/02 03:03:52;;;;;;;9.70;9.40;;;1.40;99.90;;;;;;4954947;28;20311;-78
2023/03/02 03:06:24;;;;;;;9.60;9.30;;;1.40;99.90;;;;;;4956232;28;20227;-79
2023/03/02 03:09:01;;;;;;;9.57;9.27;;;1.40;99.90;;;;;;4950866;28;20234;-79
2023/03/02 03:11:32;;;;;;;9.73;9.43;;;1.40;99.90;;;;;;4947157;28;20241;-79
2023/03/02 03:14:07;;;;;;;9.60;9.30;;;1.50;99.90;;;;;;4949826;29;20237;-79
2023/03/02 03:16:37;;;;;;;9.50;9.20;;;1.40;99.90;;;;;;4950480;28;20241;-79
2023/03/02 03:19:13;;;;;;;9.80;9.50;;;1.40;99.90;;;;;;4950363;28;20270;-79
2023/03/02 03:21:40;;;;;;;9.53;9.23;;;1.40;99.90;;;;;;4951024;28;20321;-78
2023/03/02 03:24:09;;;;;;;9.37;9.07;;;1.40;99.90;;;;;;4956313;28;20260;-79
2023/03/02 03:26:38;;;;;;;9.60;9.30;;;1.40;99.90;;;;;;4957039;28;20241;-78
2023/03/02 03:29:08;;;;;;;9.83;9.53;;;1.40;99.90;;;;;;4957182;28;20249;-79
2023/03/02 03:31:36;;;;;;;9.37;9.07;;;1.40;99.90;;;;;;4956090;28;20306;-78
2023/03/02 03:34:06;;;;;;;9.63;9.33;;;1.40;99.90;;;;;;4956474;28;20231;-79
2023/03/02 03:36:34;;;;;;;9.60;9.30;;;1.40;99.90;;;;;;4956432;28;20235;-79
2023/03/02 03:39:04;;;;;;;9.50;9.20;;;1.40;99.90;;;;;;4956780;28;20231;-79
2023/03/02 03:41:32;;;;;;;9.57;9.27;;;1.40;99.90;;;;;;4956318;28;20239;-78
2023/03/02 03:44:00;;;;;;;9.47;9.17;;;1.40;99.90;;;;;;4957828;28;20259;-78
2023/03/02 03:46:29;;;;;;;9.53;9.23;;;1.40;99.90;;;;;;4959518;28;20238;-78
2023/03/02 03:48:57;;;;;;;9.43;9.13;;;1.40;99.90;;;;;;4959214;28;20291;-79
2023/03/02 03:51:25;;;;;;;9.50;9.20;;;1.40;99.90;;;;;;4954727;28;20275;-79
2023/03/02 03:54:00;;;;;;;9.37;9.07;;;1.40;99.90;;;;;;4954352;28;20307;-79
2023/03/02 03:56:28;;;;;;;9.50;9.20;;;1.50;99.90;;;;;;4954476;28;20237;-79
2023/03/02 03:59:05;;;;;;;9.47;9.17;;;1.50;99.90;;;;;;4957317;28;20235;-78
2023/03/02 04:01:35;;;;;;;9.77;9.47;;;1.50;99.90;;;;;;4955977;28;20251;-79
2023/03/02 04:04:03;;;;;;;9.53;9.23;;;1.50;99.90;;;;;;4954197;28;20244;-79
2023/03/02 04:06:31;;;;;;;9.60;9.30;;;1.40;99.90;;;;;;4953704;28;20239;-79
2023/03/02 04:09:03;;;;;;;9.63;9.33;;;1.40;99.90;;;;;;4952624;28;20290;-79
2023/03/02 04:11:31;;;;;;;9.50;9.20;;;1.40;99.90;;;;;;4952647;28;20242;-79
2023/03/02 04:13:59;;;;;;;9.60;9.30;;;1.40;99.90;;;;;;4953048;28;20241;-79
2023/03/02 04:16:30;;;;;;;9.70;9.40;;;1.40;99.90;;;;;;4952880;28;20263;-79
2023/03/02 04:19:00;;;;;;;9.60;9.30;;;1.40;99.90;;;;;;4954774;28;20234;-79
2023/03/02 04:21:28;;;;;;;9.53;9.23;;;1.40;99.90;;;;;;4952934;28;20235;-79
2023/03/02 04:23:57;;;;;;;9.70;9.40;;;1.40;99.90;;;;;;4951946;28;20265;-79
2023/03/02 04:26:25;;;;;;;9.40;9.10;;;1.40;99.90;;;;;;4953472;28;20246;-79
2023/03/02 04:28:53;;;;;;;9.33;9.03;;;1.40;99.90;;;;;;4952250;28;20235;-78
2023/03/02 04:31:21;;;;;;;9.47;9.17;;;1.30;99.90;;;;;;4952265;28;20269;-79
2023/03/02 04:33:48;;;;;;;9.27;8.97;;;1.20;99.90;;;;;;4952679;28;20317;-79
2023/03/02 04:36:19;;;;;;;8.90;8.70;;;1.10;99.90;;;;;;4952318;28;20227;-79
2023/03/02 04:38:46;;;;;;;8.97;8.77;;;1.10;99.90;;;;;;4952047;28;20224;-79
2023/03/02 04:41:14;;;;;;;9.60;9.30;;;1.00;99.90;;;;;;4951786;28;20325;-79
2023/03/02 04:43:42;;;;;;;8.97;8.77;;;1.00;99.90;;;;;;4950250;28;20242;-79
2023/03/02 04:46:14;;;;;;;9.17;8.87;;;1.00;99.90;;;;;;4946906;28;20298;-78
2023/03/02 04:48:42;;;;;;;9.13;8.83;;;1.00;99.90;;;;;;4947521;28;20242;-79
2023/03/02 04:51:22;;;;;;;8.73;8.53;;;1.00;99.90;;;;;;4946689;28;20243;-78
2023/03/02 04:53:50;;;;;;;8.70;8.50;;;0.90;99.90;;;;;;4947421;28;20231;-78
2023/03/02 04:56:18;;;;;;;8.80;8.60;;;0.80;99.90;;;;;;4946554;28;20266;-78
2023/03/02 04:58:46;;;;;;;9.20;8.90;;;0.80;99.90;;;;;;4946264;28;20237;-78
2023/03/02 05:01:16;;;;;;;9.30;9.00;;;0.80;99.90;;;;;;4945764;28;20276;-78
2023/03/02 05:03:47;;;;;;;9.37;9.07;;;0.80;99.90;;;;;;4945864;28;20230;-78
2023/03/02 05:06:15;;;;;;;9.27;8.97;;;0.70;99.90;;;;;;4946378;28;20329;-78
2023/03/02 05:08:45;;;;;;;9.60;9.30;;;0.60;99.90;;;;;;4945937;28;20229;-78
2023/03/02 05:11:21;;;;;;;10.00;9.70;;;0.50;99.90;;;;;;4945742;28;20238;-78
2023/03/02 05:13:48;;;;;;;9.67;9.37;;;0.60;99.90;;;;;;4946231;28;20233;-78
2023/03/02 05:16:16;;;;;;;10.17;9.87;;;0.50;99.90;;;;;;4946145;28;20257;-78
2023/03/02 05:18:45;;;;;;;9.90;9.60;;;0.50;99.90;;;;;;4945814;28;20215;-78
2023/03/02 05:21:13;;;;;;;9.77;9.47;;;0.40;99.90;;;;;;4946206;28;20305;-78
2023/03/02 05:23:42;;;;;;;9.80;9.50;;;0.30;99.90;;;;;;4946137;28;20334;-78
2023/03/02 05:26:13;;;;;;;9.40;9.10;;;0.20;99.90;;;;;;4945660;28;20294;-78
2023/03/02 05:28:43;;;;;;;9.40;9.10;;;0.30;99.90;;;;;;4945579;28;20223;-78
2023/03/02 05:31:14;;;;;;;9.17;8.87;;;0.20;99.90;;;;;;4945601;28;20246;-77
2023/03/02 05:33:41;;;;;;;9.57;9.27;;;0.20;99.90;;;;;;4945417;28;20269;-79
2023/03/02 05:36:11;;;;;;;9.03;8.83;;;0.10;99.90;;;;;;4944391;28;20425;-78
2023/03/02 05:38:39;;;;;;;8.93;8.73;;;0.10;99.90;;;;;;4945212;28;20286;-78
2023/03/02 05:41:08;;;;;;;9.70;9.40;;;0.20;99.90;;;;;;4946086;28;20744;-78
2023/03/02 05:43:37;;;;;;;10.10;9.80;;;0.20;99.90;;;;;;4945956;28;20240;-78
2023/03/02 05:46:06;;;;;;;10.20;9.90;;;0.30;99.90;;;;;;4945767;28;20248;-77
2023/03/02 05:48:37;;;;;;;10.30;10.00;;;0.10;99.90;;;;;;4944922;28;20378;-77
2023/03/02 05:51:10;;;;;;;9.50;9.20;;;0.00;99.90;;;;;;4945027;28;20248;-78
2023/03/02 05:53:38;;;;;;;10.30;10.00;;;-0.10;99.90;;;;;;4945970;28;20242;-78
2023/03/02 05:56:08;;;;;;;10.57;10.27;;;-0.20;99.90;;;;;;4945017;29;20246;-78
2023/03/02 05:58:37;;;;;;;9.80;9.50;;;-0.20;99.90;;;;;;4949233;28;20338;-79
2023/03/02 06:04:53;;;;;;;10.10;9.80;;;-0.20;99.90;;;;;;1575614;23;20660;-80
2023/03/02 07:07:41;;;;;;;10.60;10.30;;;1.10;99.90;;;;;;4857060;29;20223;-81
2023/03/02 07:34:09;;;;;;;10.60;10.30;;;2.50;99.90;;;;;;4737665;29;20242;-84
2023/03/02 07:37:24;;;;;;;11.00;10.70;;;2.70;99.90;;;;;;4789870;29;20432;-83
2023/03/02 08:02:14;;;;;;;10.00;9.70;;;4.10;99.90;;;;;;4745843;30;20241;-83
2023/03/02 08:22:12;;;;;;;;;;;;;;;;;;;;;
2023/03/02 08:46:36;;;;;;;10.40;10.10;;;6.00;99.90;;;;;;4825795;29;20242;-84
2023/03/02 09:07:49;;;;;;;10.50;10.20;;;6.90;99.90;;;;;;4803789;29;20286;-79
2023/03/02 09:14:27;;;;;;;10.23;9.93;;;7.40;99.90;;;;;;4844772;29;20294;-80
2023/03/02 09:20:51;;;;;;;10.00;9.70;;;7.60;99.90;;;;;;4848205;29;20238;-83
2023/03/02 12:00:14;;;;;;;11.00;10.70;;;15.40;99.90;;;;;;4774080;29;20233;-82
2023/03/02 12:02:42;;;;;;;11.00;10.70;;;15.50;99.90;;;;;;4964290;23;20332;-80
2023/03/02 12:05:26;;;;;;;10.63;10.32;;;15.10;99.90;;;;;;5009638;28;20267;-80
2023/03/02 12:08:04;;;;;;;10.80;10.50;;;15.30;99.90;;;;;;5012505;28;20228;-80
2023/03/02 12:10:37;;;;;;;10.93;10.63;;;15.70;99.90;;;;;;5019506;28;20288;-81
2023/03/02 12:13:21;;;;;;;10.95;10.65;;;15.90;99.90;;;;;;4997278;28;20244;-82
2023/03/02 12:15:50;;;;;;;10.68;10.38;;;16.20;99.90;;;;;;4992495;28;20368;-82
2023/03/02 12:18:48;;;;;;;10.90;10.60;;;16.60;99.90;;;;;;4992941;28;20250;-81
2023/03/02 12:21:24;;;;;;;10.55;10.25;;;16.80;99.90;;;;;;4992329;28;20253;-83
2023/03/02 12:24:05;;;;;;;10.50;10.20;;;16.40;99.90;;;;;;4989635;28;20230;-83
2023/03/02 12:26:41;;;;;;;10.57;10.27;;;16.00;99.90;;;;;;4990667;28;20231;-81
2023/03/02 12:29:29;;;;;;;10.50;10.20;;;15.90;99.90;;;;;;4990162;28;20218;-83
2023/03/02 12:31:57;;;;;;;10.77;10.48;;;15.90;99.90;;;;;;4991073;28;20241;-82
2023/03/02 12:34:36;;;;;;;11.00;10.70;;;15.50;99.90;;;;;;4989922;28;20248;-82
2023/03/02 12:37:14;;;;;;;11.05;10.75;;;15.30;99.90;;;;;;4991234;28;20225;-82
2023/03/02 12:40:29;;;;;;;10.82;10.52;;;15.50;99.90;;;;;;4990911;28;20317;-82
2023/03/02 12:43:32;;;;;;;10.80;10.50;;;15.60;99.90;;;;;;4984169;28;20237;-80
2023/03/02 12:46:33;;;;;;;11.00;10.70;;;15.90;99.90;;;;;;4969885;28;20241;-80
2023/03/02 12:49:21;;;;;;;10.75;10.45;;;16.10;99.90;;;;;;4985064;28;20271;-78
2023/03/02 12:51:53;;;;;;;10.35;10.05;;;16.60;99.90;;;;;;4988037;28;20285;-78
2023/03/02 12:54:28;;;;;;;10.52;10.23;;;16.70;99.90;;;;;;4987893;28;20241;-78
2023/03/02 12:57:15;;;;;;;10.40;10.10;;;17.20;99.90;;;;;;4989492;28;20347;-79
2023/03/02 12:59:47;;;;;;;10.30;10.00;;;17.30;99.90;;;;;;4986193;28;20236;-79
2023/03/02 13:02:27;;;;;;;10.45;10.15;;;16.80;99.90;;;;;;4970162;28;20301;-81
2023/03/02 13:04:57;;;;;;;10.52;10.23;;;16.70;99.90;;;;;;4971624;28;20222;-82
2023/03/02 13:07:29;;;;;;;10.75;10.45;;;16.90;99.90;;;;;;4971502;28;20241;-79
2023/03/02 13:09:59;;;;;;;10.52;10.23;;;17.00;99.90;;;;;;4973118;28;20214;-81
2023/03/02 13:12:30;;;;;;;10.57;10.27;;;16.70;99.90;;;;;;4970210;28;20230;-81
2023/03/02 13:15:00;;;;;;;10.50;10.20;;;16.70;99.90;;;;;;4969036;28;20291;-80
2023/03/02 13:17:31;;;;;;;10.70;10.40;;;16.80;99.90;;;;;;4973905;28;20229;-80
2023/03/02 13:20:01;;;;;;;10.63;10.32;;;17.20;99.90;;;;;;4981499;28;20251;-80
2023/03/02 13:22:29;;;;;;;10.85;10.55;;;17.30;99.90;;;;;;4982940;28;20289;-79
2023/03/02 13:25:07;;;;;;;10.80;10.50;;;16.90;99.90;;;;;;4992270;28;20309;-79
2023/03/02 13:27:39;;;;;;;10.90;10.60;;;16.60;99.90;;;;;;4991103;28;20267;-80
2023/03/02 13:30:12;;;;;;;10.60;10.30;;;16.70;99.90;;;;;;4990184;28;20269;-79
2023/03/02 13:32:45;;;;;;;10.70;10.40;;;17.20;99.90;;;;;;4977173;28;20265;-79
2023/03/02 13:35:21;;;;;;;10.40;10.10;;;17.40;99.90;;;;;;4975906;28;20252;-79
2023/03/02 13:38:03;;;;;;;10.60;10.30;;;17.40;99.90;;;;;;4976339;28;20231;-80
2023/03/02 13:40:40;;;;;;;10.30;10.00;;;16.90;99.90;;;;;;4974540;28;20241;-80
2023/03/02 13:43:30;;;;;;;10.57;10.27;;;17.30;99.90;;;;;;4991015;28;20233;-80
2023/03/02 13:45:59;;;;;;;10.48;10.18;;;17.70;99.90;;;;;;4991294;28;20237;-81
2023/03/02 13:48:28;;;;;;;10.45;10.15;;;17.60;99.90;;;;;;4984348;28;20221;-81
2023/03/02 13:51:01;;;;;;;10.13;9.82;;;17.70;99.90;;;;;;4992108;28;20214;-81
2023/03/02 13:53:36;;;;;;;10.52;10.23;;;17.30;99.90;;;;;;4990759;28;20245;-79
2023/03/02 13:56:05;;;;;;;10.40;10.10;;;17.00;99.90;;;;;;4994937;28;20237;-80
2023/03/02 13:58:45;;;;;;;10.15;9.85;;;16.90;99.90;;;;;;4996456;28;20301;-80
2023/03/02 14:01:13;;;;;;;10.43;10.13;;;17.30;99.90;;;;;;4997802;28;20225;-79
2023/03/02 14:03:42;;;;;;;10.48;10.18;;;17.30;99.90;;;;;;4996386;28;20277;-81
2023/03/02 14:06:11;;;;;;;10.63;10.32;;;17.50;99.90;;;;;;4990229;28;20242;-80
2023/03/02 14:08:41;;;;;;;10.82;10.52;;;18.10;99.90;;;;;;4989757;28;20301;-81
2023/03/02 14:11:11;;;;;;;10.85;10.55;;;17.90;99.90;;;;;;4989499;28;20237;-80
2023/03/02 14:13:48;;;;;;;10.75;10.45;;;18.10;99.90;;;;;;4989196;28;20240;-80
2023/03/02 14:16:18;;;;;;;10.75;10.45;;;18.30;99.90;;;;;;4990105;28;20297;-79
2023/03/02 14:18:48;;;;;;;10.50;10.20;;;18.10;99.90;;;;;;4988265;28;20305;-80
2023/03/02 14:21:18;;;;;;;10.63;10.32;;;18.10;99.90;;;;;;4988246;28;20324;-80
2023/03/02 14:23:46;;;;;;;10.70;10.40;;;18.10;99.90;;;;;;4988084;28;20312;-81
2023/03/02 14:26:31;;;;;;;10.38;10.07;;;18.10;99.90;;;;;;4988011;28;20237;-81
2023/03/02 14:29:03;;;;;;;10.50;10.20;;;18.30;99.90;;;;;;4997246;28;20235;-80
2023/03/02 14:31:31;;;;;;;10.00;9.70;;;17.80;99.90;;;;;;4980311;28;20244;-80
2023/03/02 14:34:01;;;;;;;10.48;10.18;;;17.70;99.90;;;;;;4987585;28;20289;-80
2023/03/02 14:36:33;;;;;;;10.57;10.27;;;17.90;99.90;;;;;;4987822;28;20297;-80
2023/03/02 14:39:05;;;;;;;10.52;10.23;;;17.80;99.90;;;;;;4988040;28;20231;-80
2023/03/02 14:41:34;;;;;;;10.43;10.13;;;17.80;99.90;;;;;;4991026;28;20260;-80
2023/03/02 14:44:03;;;;;;;10.38;10.07;;;17.90;99.90;;;;;;4989090;28;20237;-80
2023/03/02 14:46:30;;;;;;;10.13;9.82;;;18.40;99.90;;;;;;4989648;28;20229;-81
2023/03/02 14:48:58;;;;;;;10.10;9.80;;;18.30;99.90;;;;;;4991537;28;20313;-80
2023/03/02 14:51:30;;;;;;;10.50;10.20;;;18.00;99.90;;;;;;4989041;28;20221;-79
2023/03/02 14:53:59;;;;;;;10.30;10.00;;;17.80;99.90;;;;;;4990432;28;20228;-81
2023/03/02 14:56:27;;;;;;;10.45;10.15;;;17.40;99.90;;;;;;4991656;28;20240;-80
2023/03/02 14:58:56;;;;;;;10.70;10.40;;;17.40;99.90;;;;;;4983912;28;20257;-81
2023/03/02 15:01:30;;;;;;;10.80;10.50;;;17.40;99.90;;;;;;4989474;28;20225;-81
2023/03/02 15:03:58;;;;;;;10.77;10.48;;;17.70;99.90;;;;;;4981455;28;20217;-81
2023/03/02 15:06:34;;;;;;;10.48;10.18;;;17.30;99.90;;;;;;4987587;28;20240;-80
2023/03/02 15:09:03;;;;;;;10.45;10.15;;;17.60;99.90;;;;;;4990721;28;20233;-82
2023/03/02 15:11:32;;;;;;;10.77;10.48;;;18.30;99.90;;;;;;4991380;28;20230;-80
2023/03/02 15:14:01;;;;;;;10.50;10.20;;;18.50;99.90;;;;;;4992112;28;20297;-81
2023/03/02 15:16:41;;;;;;;10.68;10.38;;;18.50;99.90;;;;;;4991207;28;20308;-80
2023/03/02 15:19:09;;;;;;;10.30;10.00;;;18.60;99.90;;;;;;4998260;28;20221;-80
2023/03/02 15:21:43;;;;;;;10.60;10.30;;;18.30;99.90;;;;;;4992790;28;20230;-80
2023/03/02 15:24:11;;;;;;;10.38;10.07;;;18.00;99.90;;;;;;4993563;28;20224;-80
2023/03/02 15:26:39;;;;;;;10.00;9.70;;;17.90;99.90;;;;;;4988383;28;20238;-80
2023/03/02 15:29:07;;;;;;;10.20;9.90;;;17.60;99.90;;;;;;4993222;28;20238;-79
2023/03/02 15:31:38;;;;;;;10.20;9.90;;;17.30;99.90;;;;;;4980783;28;20223;-80
2023/03/02 15:34:06;;;;;;;10.43;10.13;;;17.40;99.90;;;;;;4973319;28;20237;-81
2023/03/02 15:36:34;;;;;;;10.15;9.85;;;17.40;99.90;;;;;;4972340;28;20230;-80
2023/03/02 15:39:06;;;;;;;10.40;10.10;;;17.10;99.90;;;;;;4972797;28;20234;-80
2023/03/02 15:41:34;;;;;;;10.38;10.07;;;17.10;99.90;;;;;;4971714;28;20294;-82
2023/03/02 15:44:02;;;;;;;10.32;10.02;;;16.80;99.90;;;;;;4972401;28;20281;-80
2023/03/02 15:46:34;;;;;;;10.15;9.85;;;16.70;99.90;;;;;;4971850;28;20233;-80
2023/03/02 15:49:05;;;;;;;9.90;9.60;;;16.90;99.90;;;;;;4981038;28;20235;-81
2023/03/02 15:51:32;;;;;;;10.50;10.20;;;16.80;99.90;;;;;;4998755;28;20218;-80
2023/03/02 15:54:01;;;;;;;10.65;10.35;;;16.60;99.90;;;;;;4991401;28;20222;-80
2023/03/02 15:56:33;;;;;;;10.40;10.10;;;16.00;99.90;;;;;;4998739;28;20229;-80
2023/03/02 15:59:01;;;;;;;10.20;9.90;;;16.00;99.90;;;;;;4994737;28;20253;-81
2023/03/02 16:01:32;;;;;;;10.45;10.15;;;16.30;99.90;;;;;;4991885;28;20233;-80
2023/03/02 16:04:02;;;;;;;10.35;10.05;;;16.40;99.90;;;;;;4991934;28;20225;-81
2023/03/02 16:06:30;;;;;;;10.38;10.07;;;16.50;99.90;;;;;;4990015;28;20261;-80
2023/03/02 16:09:00;;;;;;;10.18;9.88;;;15.40;99.90;;;;;;4989349;28;20222;-80
2023/03/02 16:11:30;;;;;;;10.15;9.85;;;14.70;99.90;;;;;;4991380;28;20312;-80
2023/03/02 16:13:58;;;;;;;10.35;10.05;;;14.10;99.90;;;;;;4991313;28;20263;-81
2023/03/02 16:16:26;;;;;;;10.10;9.80;;;13.90;99.90;;;;;;4990763;28;20244;-80
2023/03/02 16:18:56;;;;;;;10.30;10.00;;;13.40;99.90;;;;;;4990541;28;20262;-80
2023/03/02 16:21:28;;;;;;;10.10;9.80;;;13.10;99.90;;;;;;4990361;28;20257;-80
2023/03/02 16:24:01;;;;;;;9.90;9.60;;;12.90;99.90;;;;;;4991247;28;20222;-79
2023/03/02 16:26:30;;;;;;;10.30;10.00;;;12.60;99.90;;;;;;4990531;28;20301;-80
2023/03/02 16:28:57;;;;;;;10.20;9.90;;;12.40;99.90;;;;;;4990083;28;20293;-80
2023/03/02 16:31:26;;;;;;;10.27;9.97;;;12.10;99.90;;;;;;4990679;28;20284;-81
2023/03/02 16:33:57;;;;;;;10.27;9.97;;;11.90;99.90;;;;;;4990551;28;20233;-79
2023/03/02 16:36:27;;;;;;;10.23;9.93;;;11.80;99.90;;;;;;4986876;28;20230;-80
2023/03/02 16:38:54;;;;;;;10.40;10.10;;;11.60;99.90;;;;;;4990666;28;20272;-81
2023/03/02 16:41:23;;;;;;;10.40;10.10;;;11.40;99.90;;;;;;4983008;28;20222;-81
2023/03/02 16:43:53;;;;;;;10.40;10.10;;;11.40;99.90;;;;;;4975916;28;20301;-81
2023/03/02 16:46:22;;;;;;;10.37;10.07;;;11.30;99.90;;;;;;4970490;28;20226;-81
2023/03/02 16:48:51;;;;;;;10.43;10.13;;;11.10;99.90;;;;;;4978469;28;20241;-81
2023/03/02 16:51:20;;;;;;;10.17;9.87;;;11.00;99.90;;;;;;4974068;28;20269;-81
2023/03/02 16:53:52;;;;;;;10.50;10.20;;;10.90;99.90;;;;;;4990857;28;20244;-81
2023/03/02 16:56:20;;;;;;;10.10;9.80;;;10.80;99.90;;;;;;4990000;28;20233;-81
2023/03/02 16:58:50;;;;;;;10.10;9.80;;;10.70;99.90;;;;;;4990997;28;20262;-80
2023/03/02 17:01:21;;;;;;;10.10;9.80;;;10.60;99.90;;;;;;4991452;28;20237;-80
2023/03/02 17:03:49;;;;;;;10.10;9.80;;;10.50;99.90;;;;;;4991806;28;20272;-80
2023/03/02 17:06:25;;;;;;;9.97;9.67;;;10.40;99.90;;;;;;4992272;28;20249;-80
2023/03/02 17:08:57;;;;;;;10.00;9.70;;;10.30;99.90;;;;;;4991574;28;20248;-80
2023/03/02 17:11:25;;;;;;;10.17;9.87;;;10.30;99.90;;;;;;4991128;28;20230;-80
2023/03/02 17:13:52;;;;;;;9.50;9.20;;;10.30;99.90;;;;;;4990758;28;20289;-80
2023/03/02 17:16:23;;;;;;;10.20;9.90;;;10.10;99.90;;;;;;4989879;28;20433;-81
2023/03/02 17:18:52;;;;;;;9.60;9.30;;;10.00;99.90;;;;;;4989953;28;20238;-80
2023/03/02 17:21:23;;;;;;;9.63;9.33;;;10.00;99.90;;;;;;4989409;28;20244;-81
2023/03/02 17:23:52;;;;;;;9.53;9.23;;;9.90;99.90;;;;;;4990029;28;20236;-81
2023/03/02 17:26:32;;;;;;;9.53;9.23;;;9.70;99.90;;;;;;4990259;28;20297;-80
2023/03/02 17:29:00;;;;;;;9.37;9.07;;;9.70;99.90;;;;;;4990064;28;20248;-81
2023/03/02 17:31:28;;;;;;;9.10;8.80;;;9.60;99.90;;;;;;4990677;28;20226;-80
2023/03/02 17:34:01;;;;;;;9.00;8.70;;;9.50;99.90;;;;;;4989099;28;20735;-81
2023/03/02 17:36:29;;;;;;;9.40;9.10;;;9.40;99.90;;;;;;4989398;28;20245;-80
2023/03/02 17:38:57;;;;;;;9.50;9.20;;;9.30;99.90;;;;;;4991604;28;20236;-81
2023/03/02 17:41:36;;;;;;;9.50;9.20;;;9.30;99.90;;;;;;4991298;28;20221;-81
2023/03/02 17:44:04;;;;;;;9.73;9.43;;;9.20;99.90;;;;;;4990101;28;20225;-81
2023/03/02 17:46:34;;;;;;;9.60;9.30;;;9.20;99.90;;;;;;4990415;28;20301;-82
2023/03/02 17:49:02;;;;;;;9.70;9.40;;;9.10;99.90;;;;;;4991619;28;20237;-81
2023/03/02 17:51:30;;;;;;;9.20;8.90;;;9.10;99.90;;;;;;4990831;28;20238;-82
2023/03/02 17:53:58;;;;;;;9.40;9.10;;;9.10;99.90;;;;;;4989780;28;20218;-81
2023/03/02 17:56:28;;;;;;;9.50;9.20;;;9.10;99.90;;;;;;4988955;28;20256;-81
2023/03/02 17:59:02;;;;;;;9.50;9.20;;;9.10;99.90;;;;;;4987474;28;20237;-78
2023/03/02 18:01:34;;;;;;;9.40;9.10;;;9.00;99.90;;;;;;4970712;28;20226;-79
2023/03/02 18:04:04;;;;;;;9.23;8.93;;;8.90;99.90;;;;;;4970968;28;20250;-79
2023/03/02 18:06:31;;;;;;;9.53;9.23;;;8.90;99.90;;;;;;4971645;28;20298;-79
2023/03/02 18:08:59;;;;;;;9.47;9.17;;;8.90;99.90;;;;;;4971105;28;20282;-79
2023/03/02 18:11:31;;;;;;;9.47;9.17;;;8.90;99.90;;;;;;4969695;28;20283;-80
2023/03/02 18:14:00;;;;;;;9.80;9.50;;;8.90;99.90;;;;;;4970511;28;20230;-79
2023/03/02 18:16:29;;;;;;;9.60;9.30;;;8.80;99.90;;;;;;4973542;28;20301;-79
2023/03/02 18:18:57;;;;;;;9.50;9.20;;;8.80;99.90;;;;;;4976105;28;20247;-79
2023/03/02 18:21:26;;;;;;;9.40;9.10;;;8.80;99.90;;;;;;4974572;28;20230;-79
2023/03/02 18:23:55;;;;;;;9.50;9.20;;;8.70;99.90;;;;;;4969342;28;20227;-79
2023/03/02 18:26:23;;;;;;;9.20;8.90;;;8.70;99.90;;;;;;4969119;28;20226;-79
2023/03/02 18:28:52;;;;;;;9.30;9.00;;;8.60;99.90;;;;;;4971643;28;20248;-79
2023/03/02 18:31:20;;;;;;;9.23;8.93;;;8.60;99.90;;;;;;4969647;28;20258;-80
2023/03/02 18:33:48;;;;;;;9.40;9.10;;;8.60;99.90;;;;;;4968453;28;20328;-78
2023/03/02 18:36:16;;;;;;;9.40;9.10;;;8.50;99.90;;;;;;4968551;28;20276;-79
2023/03/02 18:38:45;;;;;;;9.40;9.10;;;8.50;99.90;;;;;;4969951;28;20233;-79
2023/03/02 18:41:14;;;;;;;9.20;8.90;;;8.50;99.90;;;;;;4968415;28;20287;-80